createdAt,value
2023-01-02T00:01:42.130Z,4.03
2023-01-02T00:04:10.745Z,4.75
2023-01-02T00:06:40.573Z,8.35
2023-01-02T00:09:10.614Z,6.25
2023-01-02T00:11:39.053Z,9.65
2023-01-02T00:14:07.637Z,8.45
2023-01-02T00:16:36.040Z,5.57
2023-01-02T00:19:04.758Z,6.20
2023-01-02T00:21:33.429Z,8.18
2023-01-02T00:24:01.984Z,3.85
2023-01-02T00:26:32.787Z,4.40
2023-01-02T00:29:02.189Z,7.82
2023-01-02T00:31:30.713Z,7.07
2023-01-02T00:33:59.118Z,4.32
2023-01-02T00:36:27.913Z,5.20
2023-01-02T00:38:57.215Z,6.25
2023-01-02T00:41:25.756Z,8.05
2023-01-02T00:43:55.628Z,8.38
2023-01-02T00:46:24.134Z,8.27
2023-01-02T00:48:52.682Z,5.63
2023-01-02T00:51:21.110Z,5.50
2023-01-02T00:53:49.497Z,4.20
2023-01-02T00:56:17.896Z,5.18
2023-01-02T00:58:46.308Z,11.40
2023-01-02T01:01:16.380Z,8.70
2023-01-02T01:03:45.298Z,3.03
2023-01-02T01:06:14.711Z,4.82
2023-01-02T01:08:43.313Z,4.70
2023-01-02T01:11:13.794Z,7.10
2023-01-02T01:13:42.411Z,11.75
2023-01-02T01:16:12.965Z,10.35
2023-01-02T01:18:43.156Z,8.73
2023-01-02T01:21:13.368Z,3.90
2023-01-02T01:23:42.043Z,9.30
2023-01-02T01:26:12.900Z,5.60
2023-01-02T01:28:42.232Z,5.47
2023-01-02T01:31:12.127Z,6.25
2023-01-02T01:33:43.160Z,7.75
2023-01-02T01:36:13.780Z,4.07
2023-01-02T01:38:43.025Z,4.63
2023-01-02T01:41:13.302Z,5.75
2023-01-02T01:43:44.702Z,4.53
2023-01-02T01:46:23.157Z,10.30
2023-01-02T01:48:59.854Z,4.28
2023-01-02T01:51:29.590Z,5.35
2023-01-02T01:54:05.245Z,6.38
2023-01-02T01:56:36.571Z,8.05
2023-01-02T01:59:05.168Z,2.38
2023-01-02T02:01:34.811Z,6.50
2023-01-02T02:04:05.090Z,3.72
2023-01-02T02:06:33.640Z,4.63
2023-01-02T02:09:06.240Z,4.60
2023-01-02T02:11:35.575Z,3.92
2023-01-02T02:14:03.910Z,5.28
2023-01-02T02:16:42.517Z,2.53
2023-01-02T02:20:07.688Z,3.63
2023-01-02T02:23:18.754Z,5.72
2023-01-02T02:26:29.475Z,3.00
2023-01-02T02:29:36.706Z,7.70
2023-01-02T02:32:17.057Z,6.78
2023-01-02T02:34:54.209Z,3.92
2023-01-02T02:37:28.303Z,6.55
2023-01-02T02:40:05.572Z,3.15
2023-01-02T02:42:46.257Z,3.72
2023-01-02T02:45:22.395Z,4.60
2023-01-02T02:47:59.669Z,11.95
2023-01-02T02:50:33.842Z,3.78
2023-01-02T02:53:06.454Z,4.28
2023-01-02T02:55:39.162Z,4.97
2023-01-02T02:58:09.305Z,6.10
2023-01-02T03:00:37.961Z,3.78
2023-01-02T03:03:17.853Z,5.88
2023-01-02T03:06:00.541Z,5.13
2023-01-02T03:08:35.075Z,6.72
2023-01-02T03:11:04.626Z,5.60
2023-01-02T03:13:42.540Z,2.80
2023-01-02T03:16:19.269Z,3.60
2023-01-02T03:18:54.700Z,5.50
2023-01-02T03:21:31.398Z,3.67
2023-01-02T03:24:05.683Z,10.85
2023-01-02T03:26:37.678Z,1.88
2023-01-02T03:29:10.134Z,1.98
2023-01-02T03:31:42.088Z,2.38
2023-01-02T03:34:17.042Z,5.03
2023-01-02T03:36:49.292Z,4.43
2023-01-02T03:39:21.153Z,4.57
2023-01-02T03:41:56.937Z,3.75
2023-01-02T03:44:30.089Z,6.85
2023-01-02T03:47:06.621Z,5.13
2023-01-02T03:49:40.736Z,3.13
2023-01-02T03:52:09.240Z,3.90
2023-01-02T03:54:38.572Z,5.45
2023-01-02T03:57:13.959Z,2.53
2023-01-02T03:59:50.690Z,4.78
2023-01-02T04:02:27.724Z,4.97
2023-01-02T04:05:02.737Z,4.80
2023-01-02T04:07:38.343Z,6.45
2023-01-02T04:10:09.680Z,2.35
2023-01-02T04:12:41.597Z,0.63
2023-01-02T04:15:13.422Z,1.15
2023-01-02T04:17:46.405Z,2.28
2023-01-02T04:20:20.557Z,0.82
2023-01-02T04:22:54.914Z,0.20
2023-01-02T04:25:27.658Z,0.30
2023-01-02T04:28:01.038Z,0.52
2023-01-02T04:30:33.930Z,1.50
2023-01-02T04:33:09.570Z,0.43
2023-01-02T04:35:39.328Z,0.30
2023-01-02T04:38:12.049Z,0.30
2023-01-02T04:40:40.719Z,0.45
2023-01-02T04:43:18.280Z,0.45
2023-01-02T04:45:48.985Z,0.50
2023-01-02T04:48:18.173Z,0.60
2023-01-02T04:50:48.940Z,0.85
2023-01-02T04:53:17.505Z,2.35
2023-01-02T04:55:46.103Z,0.82
2023-01-02T04:58:15.103Z,1.92
2023-01-02T05:00:43.435Z,1.38
2023-01-02T05:03:11.906Z,2.30
2023-01-02T05:05:40.350Z,3.30
2023-01-02T05:08:16.164Z,1.83
2023-01-02T05:10:45.074Z,1.45
2023-01-02T05:13:13.432Z,1.20
2023-01-02T05:15:41.870Z,1.13
2023-01-02T05:18:10.163Z,0.80
2023-01-02T05:20:38.634Z,0.82
2023-01-02T05:23:24.633Z,1.70
2023-01-02T05:25:54.458Z,0.80
2023-01-02T05:28:22.768Z,3.00
2023-01-02T05:30:51.192Z,2.55
2023-01-02T05:33:19.613Z,3.15
2023-01-02T05:35:47.992Z,4.70
2023-01-02T05:38:16.336Z,6.05
2023-01-02T05:40:44.727Z,2.30
2023-01-02T05:43:14.407Z,2.80
2023-01-02T05:45:42.829Z,3.47
2023-01-02T05:48:11.228Z,4.85
2023-01-02T05:50:39.746Z,5.72
2023-01-02T05:53:08.241Z,4.32
2023-01-02T05:55:37.163Z,8.02
2023-01-02T05:58:05.513Z,4.45
2023-01-02T06:00:35.351Z,5.07
2023-01-02T06:03:03.802Z,3.72
2023-01-02T06:05:32.281Z,6.65
2023-01-02T06:08:01.872Z,4.75
2023-01-02T06:10:30.305Z,5.97
2023-01-02T06:12:58.885Z,6.00
2023-01-02T06:15:27.411Z,5.97
2023-01-02T06:17:57.163Z,6.68
2023-01-02T06:20:25.712Z,6.13
2023-01-02T06:22:54.158Z,8.18
2023-01-02T06:25:22.594Z,4.00
2023-01-02T06:27:50.932Z,2.70
2023-01-02T06:30:19.398Z,5.65
2023-01-02T06:32:47.809Z,3.80
2023-01-02T06:35:17.782Z,3.03
2023-01-02T06:37:46.488Z,3.13
2023-01-02T06:40:14.870Z,1.65
2023-01-02T06:42:45.128Z,1.75
2023-01-02T06:45:13.795Z,1.45
2023-01-02T06:47:42.150Z,3.35
2023-01-02T06:50:12.128Z,2.22
2023-01-02T06:52:41.779Z,4.95
2023-01-02T06:55:10.448Z,5.30
2023-01-02T06:57:38.988Z,4.90
2023-01-02T07:00:08.590Z,3.13
2023-01-02T07:02:36.975Z,5.60
2023-01-02T07:05:06.070Z,4.50
2023-01-02T07:07:34.436Z,3.03
2023-01-02T07:10:04.448Z,3.88
2023-01-02T07:12:35.333Z,3.28
2023-01-02T07:15:04.697Z,3.42
2023-01-02T07:17:33.883Z,4.28
2023-01-02T07:20:02.666Z,3.22
2023-01-02T07:22:31.236Z,4.15
2023-01-02T07:25:01.653Z,6.00
2023-01-02T07:27:32.714Z,5.93
2023-01-02T07:30:01.727Z,8.02
2023-01-02T07:32:30.124Z,8.68
2023-01-02T07:34:58.473Z,9.65
2023-01-02T07:37:27.407Z,9.95
2023-01-02T07:39:55.925Z,9.10
2023-01-02T07:42:24.381Z,12.85
2023-01-02T07:44:54.307Z,10.55
2023-01-02T07:47:22.683Z,14.05
2023-01-02T07:49:51.179Z,13.43
2023-01-02T07:52:19.553Z,10.95
2023-01-02T07:54:48.329Z,12.68
2023-01-02T07:57:16.721Z,10.93
2023-01-02T07:59:47.158Z,11.98
2023-01-02T08:02:17.097Z,13.45
2023-01-02T08:04:45.653Z,14.13
2023-01-02T08:07:14.058Z,17.30
2023-01-02T08:09:42.394Z,14.80
2023-01-02T08:12:11.159Z,18.27
2023-01-02T08:14:39.468Z,14.55
2023-01-02T08:17:07.878Z,18.15
2023-01-02T08:19:37.761Z,10.75
2023-01-02T08:22:06.572Z,12.90
2023-01-02T08:24:35.076Z,10.88
2023-01-02T08:27:03.898Z,12.68
2023-01-02T08:29:32.246Z,17.13
2023-01-02T08:32:00.855Z,13.38
2023-01-02T08:34:29.177Z,14.65
2023-01-02T08:36:58.914Z,10.40
2023-01-02T08:39:27.263Z,10.80
2023-01-02T08:41:55.793Z,14.85
2023-01-02T08:44:24.241Z,12.75
2023-01-02T08:46:52.688Z,10.60
2023-01-02T08:49:21.438Z,12.95
2023-01-02T08:51:49.831Z,10.48
2023-01-02T08:54:19.707Z,11.63
2023-01-02T08:56:48.539Z,13.57
2023-01-02T08:59:18.068Z,11.77
2023-01-02T09:01:46.619Z,11.00
2023-01-02T09:04:15.140Z,15.07
2023-01-02T09:06:45.165Z,12.05
2023-01-02T09:09:15.287Z,17.08
2023-01-02T09:11:50.271Z,14.15
2023-01-02T09:14:20.063Z,10.60
2023-01-02T09:16:48.693Z,10.50
2023-01-02T09:19:17.272Z,11.13
2023-01-02T09:21:45.812Z,12.55
2023-01-02T09:24:14.464Z,15.55
2023-01-02T09:26:42.922Z,17.02
2023-01-02T09:29:13.328Z,12.13
2023-01-02T09:31:42.698Z,14.38
2023-01-02T09:34:11.511Z,12.73
2023-01-02T09:36:40.300Z,10.38
2023-01-02T09:39:08.790Z,12.88
2023-01-02T09:41:39.300Z,15.20
2023-01-02T09:44:12.328Z,14.27
2023-01-02T09:46:48.299Z,12.07
2023-01-02T09:49:20.999Z,9.32
2023-01-02T09:51:50.053Z,11.38
2023-01-02T09:54:24.639Z,9.43
2023-01-02T09:57:13.464Z,10.85
2023-01-02T09:59:50.753Z,12.80
2023-01-02T10:02:34.266Z,9.85
2023-01-02T10:05:34.594Z,10.68
2023-01-02T10:08:08.138Z,12.50
2023-01-02T10:10:41.381Z,10.73
2023-01-02T10:13:18.908Z,9.80
2023-01-02T10:15:50.442Z,10.05
2023-01-02T10:18:25.956Z,9.63
2023-01-02T10:20:57.961Z,9.77
2023-01-02T10:23:32.078Z,9.82
2023-01-02T10:26:05.115Z,10.75
2023-01-02T10:28:43.756Z,8.48
2023-01-02T10:31:20.581Z,7.97
2023-01-02T10:33:55.111Z,9.80
2023-01-02T10:36:26.945Z,9.45
2023-01-02T10:38:59.035Z,8.23
2023-01-02T10:41:28.925Z,7.10
2023-01-02T10:44:02.423Z,4.78
2023-01-02T10:46:33.326Z,6.28
2023-01-02T10:49:03.830Z,10.55
2023-01-02T10:51:32.610Z,9.50
2023-01-02T10:54:03.687Z,4.25
2023-01-02T10:56:34.066Z,14.13
2023-01-02T10:59:02.996Z,11.10
2023-01-02T11:01:33.466Z,5.03
2023-01-02T11:04:14.559Z,8.75
2023-01-02T11:06:53.467Z,5.13
2023-01-02T11:09:24.323Z,8.43
2023-01-02T11:11:54.804Z,6.00
2023-01-02T11:14:28.209Z,4.07
2023-01-02T11:17:05.533Z,7.20
2023-01-02T11:19:41.806Z,8.10
2023-01-02T11:22:10.935Z,12.43
2023-01-02T11:24:59.844Z,11.20
2023-01-02T11:27:32.719Z,8.77
2023-01-02T11:30:01.835Z,8.07
2023-01-02T11:32:38.660Z,8.32
2023-01-02T11:35:33.305Z,6.97
2023-01-02T11:38:03.505Z,8.20
2023-01-02T11:40:33.275Z,6.70
2023-01-02T11:43:25.801Z,5.30
2023-01-02T11:45:55.693Z,9.05
2023-01-02T11:48:25.763Z,6.43
2023-01-02T11:50:55.633Z,6.15
2023-01-02T11:53:32.266Z,4.93
2023-01-02T11:56:07.788Z,6.38
2023-01-02T11:58:44.893Z,5.13
2023-01-02T12:01:20.361Z,8.85
2023-01-02T12:06:21.551Z,3.45
2023-01-02T12:09:05.993Z,10.55
2023-01-02T12:12:03.235Z,11.98
2023-01-02T12:14:54.165Z,8.35
2023-01-02T12:17:33.935Z,12.05
2023-01-02T12:20:29.457Z,12.52
2023-01-02T12:23:20.673Z,7.85
2023-01-02T12:25:58.278Z,2.83
2023-01-02T12:28:53.639Z,5.75
2023-01-02T12:31:38.116Z,9.82
2023-01-02T12:34:15.267Z,5.57
2023-01-02T12:36:54.046Z,3.15
2023-01-02T12:39:53.084Z,3.35
2023-01-02T12:42:39.413Z,7.15
2023-01-02T12:45:16.309Z,3.10
2023-01-02T12:48:03.805Z,5.38
2023-01-02T12:50:49.378Z,3.47
2023-01-02T12:53:32.708Z,4.00
2023-01-02T12:56:10.139Z,2.22
2023-01-02T12:58:55.011Z,4.03
2023-01-02T13:01:30.785Z,4.00
2023-01-02T13:04:06.562Z,2.40
2023-01-02T13:06:47.031Z,3.58
2023-01-02T13:09:24.298Z,4.18
2023-01-02T13:12:02.487Z,3.63
2023-01-02T13:14:38.803Z,3.00
2023-01-02T13:17:36.306Z,3.00
2023-01-02T13:20:12.031Z,3.92
2023-01-02T13:22:50.210Z,6.25
2023-01-02T13:25:22.787Z,2.00
2023-01-02T13:27:52.130Z,5.13
2023-01-02T13:30:47.788Z,2.55
2023-01-02T13:33:33.104Z,10.13
2023-01-02T13:36:04.873Z,2.50
2023-01-02T13:38:37.327Z,2.15
2023-01-02T13:41:07.107Z,5.25
2023-01-02T13:43:36.094Z,5.70
2023-01-02T13:46:06.010Z,10.73
2023-01-02T13:48:39.262Z,13.50
2023-01-02T13:51:15.537Z,3.92
2023-01-02T13:53:46.159Z,2.83
2023-01-02T13:56:16.229Z,4.13
2023-01-02T13:58:49.747Z,4.38
2023-01-02T14:01:39.873Z,2.25
2023-01-02T14:04:34.320Z,3.63
2023-01-02T14:07:45.774Z,1.60
2023-01-02T14:10:43.722Z,3.00
2023-01-02T14:13:36.783Z,5.65
2023-01-02T14:16:42.277Z,3.38
2023-01-02T14:19:22.578Z,8.35
2023-01-02T14:21:55.118Z,24.33
2023-01-02T14:24:33.950Z,41.22
2023-01-02T14:27:04.737Z,8.77
2023-01-02T14:29:40.972Z,8.98
2023-01-02T14:32:18.623Z,10.23
2023-01-02T14:34:51.592Z,8.00
2023-01-02T14:37:31.963Z,5.05
2023-01-02T14:40:12.886Z,4.18
2023-01-02T14:43:00.348Z,5.55
2023-01-02T14:45:31.292Z,3.92
2023-01-02T14:48:08.623Z,1.73
2023-01-02T14:50:42.329Z,12.00
2023-01-02T14:53:19.192Z,3.15
2023-01-02T14:55:49.886Z,0.57
2023-01-02T14:58:23.818Z,1.38
2023-01-02T15:00:52.858Z,4.13
2023-01-02T15:03:28.981Z,2.95
2023-01-02T15:06:05.393Z,2.08
2023-01-02T15:08:38.941Z,1.65
2023-01-02T15:11:36.037Z,3.55
2023-01-02T15:14:06.361Z,1.95
2023-01-02T15:16:42.848Z,3.67
2023-01-02T15:19:21.476Z,0.93
2023-01-02T15:21:52.040Z,1.35
2023-01-02T15:24:23.086Z,3.33
2023-01-02T15:26:52.183Z,1.25
2023-01-02T15:29:26.691Z,3.20
2023-01-02T15:31:57.027Z,2.03
2023-01-02T15:34:27.837Z,3.53
2023-01-02T15:36:59.655Z,2.67
2023-01-02T15:39:37.949Z,3.33
2023-01-02T15:42:29.153Z,6.03
2023-01-02T15:45:15.175Z,3.55
2023-01-02T15:47:47.695Z,5.63
2023-01-02T15:50:19.981Z,6.78
2023-01-02T15:52:53.186Z,4.72
2023-01-02T15:55:22.503Z,5.63
2023-01-02T15:57:55.492Z,11.30
2023-01-02T16:00:32.661Z,13.15
2023-01-02T16:03:01.390Z,9.35
2023-01-02T16:05:30.433Z,17.48
2023-01-02T16:08:00.907Z,22.85
2023-01-02T16:10:31.457Z,22.80
2023-01-02T16:13:05.164Z,21.00
2023-01-02T16:15:36.764Z,32.60
2023-01-02T16:18:06.006Z,19.77
2023-01-02T16:20:34.517Z,21.63
2023-01-02T16:23:07.502Z,20.67
2023-01-02T16:25:43.388Z,8.05
2023-01-02T16:28:35.749Z,14.30
2023-01-02T16:31:10.785Z,9.13
2023-01-02T16:33:39.596Z,14.52
2023-01-02T16:36:10.451Z,11.55
2023-01-02T16:38:59.599Z,11.07
2023-01-02T16:42:12.133Z,11.93
2023-01-02T16:44:40.606Z,17.40
2023-01-02T16:47:11.134Z,16.13
2023-01-02T16:49:39.752Z,17.95
2023-01-02T16:52:08.198Z,12.10
2023-01-02T16:54:38.299Z,13.55
2023-01-02T16:57:13.472Z,14.73
2023-01-02T16:59:42.500Z,18.77
2023-01-02T17:02:14.370Z,19.55
2023-01-02T17:04:43.066Z,17.77
2023-01-02T17:07:14.528Z,25.20
2023-01-02T17:09:46.994Z,63.35
2023-01-02T17:12:15.354Z,26.35
2023-01-02T17:14:43.936Z,21.48
2023-01-02T17:17:12.335Z,9.07
2023-01-02T17:19:40.804Z,15.35
2023-01-02T17:22:09.632Z,20.27
2023-01-02T17:24:37.977Z,18.40
2023-01-02T17:27:08.298Z,14.38
2023-01-02T17:29:36.822Z,15.35
2023-01-02T17:32:06.144Z,18.38
2023-01-02T17:34:34.762Z,13.02
2023-01-02T17:37:03.222Z,18.55
2023-01-02T17:39:31.771Z,10.90
2023-01-02T17:42:00.125Z,18.25
2023-01-02T17:44:29.987Z,17.27
2023-01-02T17:47:23.332Z,15.75
2023-01-02T17:49:46.876Z,20.45
2023-01-02T17:52:15.303Z,17.10
2023-01-02T17:54:43.653Z,13.10
2023-01-02T17:57:12.929Z,12.52
2023-01-02T17:59:43.571Z,16.23
2023-01-02T18:02:17.124Z,13.75
2023-01-02T18:04:52.806Z,20.30
2023-01-02T18:07:23.389Z,18.10
2023-01-02T18:10:07.964Z,19.13
2023-01-02T18:12:38.146Z,15.18
2023-01-02T18:15:15.172Z,21.20
2023-01-02T18:17:43.661Z,17.13
2023-01-02T18:20:14.614Z,20.07
2023-01-02T18:22:49.028Z,18.85
2023-01-02T18:25:21.140Z,17.42
2023-01-02T18:27:49.942Z,16.13
2023-01-02T18:30:22.357Z,22.42
2023-01-02T18:32:53.832Z,20.15
2023-01-02T18:38:21.027Z,16.67
2023-01-02T18:40:49.464Z,15.68
2023-01-02T18:43:22.630Z,21.15
2023-01-02T18:45:54.960Z,22.17
2023-01-02T18:48:24.013Z,23.02
2023-01-02T18:50:58.602Z,23.30
2023-01-02T18:53:30.721Z,16.23
2023-01-02T18:56:03.313Z,18.38
2023-01-02T18:58:42.551Z,16.70
2023-01-02T19:01:25.840Z,21.20
2023-01-02T19:03:58.250Z,18.05
2023-01-02T19:06:29.080Z,19.10
2023-01-02T19:09:10.169Z,16.65
2023-01-02T19:11:56.093Z,17.52
2023-01-02T19:14:26.610Z,17.23
2023-01-02T19:17:03.071Z,26.75
2023-01-02T19:19:35.617Z,21.42
2023-01-02T19:22:14.602Z,16.48
2023-01-02T19:24:42.974Z,15.52
2023-01-02T19:27:25.268Z,15.80
2023-01-02T19:29:54.675Z,20.02
2023-01-02T19:32:31.995Z,22.67
2023-01-02T19:35:03.434Z,17.77
2023-01-02T19:37:39.144Z,15.90
2023-01-02T19:40:19.070Z,16.75
2023-01-02T19:42:49.041Z,25.90
2023-01-02T19:45:19.590Z,23.75
2023-01-02T19:47:50.258Z,20.10
2023-01-02T19:50:20.978Z,21.75
2023-01-02T19:52:49.987Z,21.35
2023-01-02T19:55:19.260Z,19.13
2023-01-02T19:57:48.528Z,21.55
2023-01-02T20:00:19.421Z,21.52
2023-01-02T20:02:51.465Z,16.92
2023-01-02T20:05:22.294Z,21.80
2023-01-02T20:07:54.280Z,24.92
2023-01-02T20:10:22.879Z,23.80
2023-01-02T20:12:51.691Z,22.70
2023-01-02T20:15:23.715Z,21.95
2023-01-02T20:17:54.984Z,21.50
2023-01-02T20:20:25.229Z,18.23
2023-01-02T20:22:54.899Z,15.70
2023-01-02T20:25:26.609Z,18.00
2023-01-02T20:27:56.471Z,19.90
2023-01-02T20:30:25.800Z,16.27
2023-01-02T20:32:55.775Z,21.20
2023-01-02T20:35:24.498Z,18.90
2023-01-02T20:37:52.848Z,13.25
2023-01-02T20:40:21.357Z,22.00
2023-01-02T20:42:49.708Z,17.65
2023-01-02T20:45:18.269Z,14.35
2023-01-02T20:47:46.763Z,16.20
2023-01-02T20:50:17.581Z,12.68
2023-01-02T20:52:46.027Z,23.00
2023-01-02T20:55:15.151Z,21.30
2023-01-02T20:57:44.962Z,16.45
2023-01-02T21:00:17.055Z,18.57
2023-01-02T21:02:45.811Z,15.07
2023-01-02T21:05:14.496Z,14.87
2023-01-02T21:07:44.220Z,14.77
2023-01-02T21:10:12.571Z,16.83
2023-01-02T21:12:58.243Z,23.23
2023-01-02T21:15:49.402Z,18.90
2023-01-02T21:18:20.448Z,15.50
2023-01-02T21:20:51.223Z,16.80
2023-01-02T21:23:22.237Z,17.20
2023-01-02T21:25:50.760Z,21.50
2023-01-02T21:28:20.210Z,15.87
2023-01-02T21:30:49.206Z,16.47
2023-01-02T21:33:19.647Z,20.43
2023-01-02T21:35:49.773Z,23.13
2023-01-02T21:38:20.741Z,16.77
2023-01-02T21:40:49.725Z,22.17
2023-01-02T21:43:18.104Z,16.23
2023-01-02T21:45:46.847Z,22.23
2023-01-02T21:48:15.403Z,15.50
2023-01-02T21:50:43.930Z,18.43
2023-01-02T21:53:12.588Z,14.63
2023-01-02T21:55:42.839Z,17.63
2023-01-02T21:58:13.313Z,21.33
2023-01-02T22:00:42.611Z,16.50
2023-01-02T22:03:11.513Z,24.60
2023-01-02T22:05:40.152Z,18.80
2023-01-02T22:08:08.735Z,16.67
2023-01-02T22:10:37.147Z,15.57
2023-01-02T22:13:07.085Z,18.63
2023-01-02T22:15:35.597Z,20.10
2023-01-02T22:18:04.037Z,18.43
2023-01-02T22:20:32.567Z,16.80
2023-01-02T22:23:01.129Z,21.73
2023-01-02T22:25:29.741Z,21.17
2023-01-02T22:27:58.241Z,17.73
2023-01-02T22:30:34.359Z,17.30
2023-01-02T22:33:04.353Z,19.40
2023-01-02T22:35:33.147Z,20.97
2023-01-02T22:38:01.641Z,23.00
2023-01-02T22:40:30.223Z,18.77
2023-01-02T22:43:01.480Z,21.30
2023-01-02T22:45:37.004Z,19.03
2023-01-02T22:48:09.455Z,17.20
2023-01-02T22:50:43.722Z,17.40
2023-01-02T22:53:21.139Z,18.03
2023-01-02T22:55:49.813Z,24.60
2023-01-02T22:58:18.852Z,15.23
2023-01-02T23:00:52.627Z,17.37
2023-01-02T23:03:21.421Z,24.37
2023-01-02T23:05:49.820Z,17.97
2023-01-02T23:08:18.692Z,19.90
2023-01-02T23:10:47.211Z,18.10
2023-01-02T23:13:15.646Z,19.53
2023-01-02T23:15:57.980Z,18.87
2023-01-02T23:18:41.955Z,23.17
2023-01-02T23:21:10.819Z,21.23
2023-01-02T23:23:39.289Z,20.37
2023-01-02T23:26:08.472Z,26.93
2023-01-02T23:29:06.073Z,27.07
2023-01-02T23:31:25.537Z,27.50
2023-01-02T23:33:55.386Z,21.33
2023-01-02T23:36:23.735Z,23.40
2023-01-02T23:38:52.081Z,28.27
2023-01-02T23:41:20.393Z,25.50
2023-01-02T23:43:49.045Z,26.30
2023-01-02T23:46:17.543Z,26.70
2023-01-02T23:48:45.976Z,26.13
2023-01-02T23:51:15.816Z,23.70
2023-01-02T23:53:44.184Z,22.97
2023-01-02T23:56:18.898Z,28.73
2023-01-02T23:58:47.871Z,22.53
